createdAt,value
2018-09-01T00:02:06.331Z,67.90
2018-09-01T00:04:34.651Z,65.50
2018-09-01T00:07:02.914Z,66.00
2018-09-01T00:09:31.226Z,59.57
2018-09-01T00:11:59.525Z,113.00
2018-09-01T00:14:27.830Z,81.33
2018-09-01T00:16:56.170Z,62.90
2018-09-01T00:19:24.456Z,84.53
2018-09-01T00:21:52.743Z,61.53
2018-09-01T00:24:21.042Z,55.20
2018-09-01T00:26:49.322Z,50.83
2018-09-01T00:29:17.592Z,49.30
2018-09-01T00:31:45.862Z,54.97
2018-09-01T00:34:14.176Z,49.60
2018-09-01T00:36:42.483Z,60.03
2018-09-01T00:39:10.768Z,53.37
2018-09-01T00:41:39.162Z,56.60
2018-09-01T00:44:07.431Z,49.60
2018-09-01T00:46:35.695Z,45.43
2018-09-01T00:49:03.980Z,39.03
2018-09-01T00:51:32.250Z,35.73
2018-09-01T00:54:00.559Z,35.43
2018-09-01T00:56:28.858Z,37.60
2018-09-01T00:58:57.140Z,34.27
2018-09-01T01:01:25.446Z,44.20
2018-09-01T01:03:53.835Z,29.20
2018-09-01T01:06:22.098Z,28.67
2018-09-01T01:08:50.387Z,26.43
2018-09-01T01:11:18.643Z,44.47
2018-09-01T01:13:47.407Z,53.33
2018-09-01T01:16:15.972Z,42.50
2018-09-01T01:18:47.680Z,40.47
2018-09-01T01:21:15.975Z,37.83
2018-09-01T01:23:44.279Z,39.07
2018-09-01T01:26:12.542Z,35.47
2018-09-01T01:28:40.855Z,35.03
2018-09-01T01:31:09.151Z,33.57
2018-09-01T01:33:37.655Z,33.03
2018-09-01T01:36:05.926Z,31.33
2018-09-01T01:38:34.189Z,28.33
2018-09-01T01:41:02.473Z,26.80
2018-09-01T01:43:30.742Z,26.37
2018-09-01T01:45:59.066Z,26.53
2018-09-01T01:48:27.473Z,25.40
2018-09-01T01:50:55.767Z,23.93
2018-09-01T01:53:24.042Z,21.83
2018-09-01T01:55:52.387Z,20.37
2018-09-01T01:58:20.690Z,20.83
2018-09-01T02:00:48.970Z,20.10
2018-09-01T02:03:17.255Z,19.37
2018-09-01T02:05:45.538Z,17.73
2018-09-01T02:08:13.821Z,18.33
2018-09-01T02:10:42.159Z,18.57
2018-09-01T02:13:10.422Z,16.80
2018-09-01T02:15:38.731Z,16.80
2018-09-01T02:18:06.986Z,16.30
2018-09-01T02:20:35.266Z,15.67
2018-09-01T02:23:03.579Z,14.17
2018-09-01T02:25:31.933Z,15.83
2018-09-01T02:28:00.200Z,14.10
2018-09-01T02:30:28.475Z,13.20
2018-09-01T02:32:56.759Z,13.63
2018-09-01T02:35:25.090Z,12.43
2018-09-01T02:37:53.362Z,11.50
2018-09-01T02:40:21.639Z,12.07
2018-09-01T02:42:49.904Z,11.07
2018-09-01T02:45:18.179Z,11.43
2018-09-01T02:47:46.740Z,11.37
2018-09-01T02:50:15.015Z,9.83
2018-09-01T02:52:43.274Z,10.13
2018-09-01T02:55:11.547Z,9.30
2018-09-01T02:57:39.855Z,9.50
2018-09-01T03:00:13.467Z,8.97
2018-09-01T03:02:44.137Z,8.60
2018-09-01T03:05:13.114Z,8.60
2018-09-01T03:07:41.397Z,8.70
2018-09-01T03:10:09.666Z,8.27
2018-09-01T03:12:37.976Z,7.50
2018-09-01T03:15:07.038Z,7.80
2018-09-01T03:17:35.346Z,7.43
2018-09-01T03:20:03.653Z,7.77
2018-09-01T03:22:31.903Z,7.20
2018-09-01T03:25:00.228Z,7.20
2018-09-01T03:27:28.531Z,6.50
2018-09-01T03:29:56.799Z,7.13
2018-09-01T03:32:25.046Z,6.93
2018-09-01T03:34:53.308Z,5.87
2018-09-01T03:37:21.578Z,6.27
2018-09-01T03:39:49.897Z,5.80
2018-09-01T03:42:18.234Z,5.70
2018-09-01T03:44:46.496Z,5.00
2018-09-01T03:47:14.767Z,5.07
2018-09-01T03:49:43.025Z,4.90
2018-09-01T03:52:11.311Z,4.77
2018-09-01T03:54:39.602Z,4.43
2018-09-01T03:57:07.933Z,4.80
2018-09-01T03:59:36.291Z,4.83
2018-09-01T04:02:04.662Z,5.30
2018-09-01T04:04:33.092Z,4.73
2018-09-01T04:07:01.354Z,4.60
2018-09-01T04:09:29.647Z,4.43
2018-09-01T04:11:57.974Z,4.13
2018-09-01T04:14:26.234Z,4.47
2018-09-01T04:16:54.493Z,3.70
2018-09-01T04:19:22.748Z,4.23
2018-09-01T04:21:51.958Z,3.90
2018-09-01T04:24:20.325Z,3.53
2018-09-01T04:26:48.605Z,3.80
2018-09-01T04:29:17.594Z,4.27
2018-09-01T04:31:46.395Z,3.77
2018-09-01T04:34:14.663Z,3.80
2018-09-01T04:36:43.385Z,3.80
2018-09-01T04:39:12.862Z,4.03
2018-09-01T04:41:41.867Z,4.03
2018-09-01T04:44:10.318Z,3.27
2018-09-01T04:46:38.827Z,2.90
2018-09-01T04:49:07.102Z,3.57
2018-09-01T04:51:35.363Z,2.93
2018-09-01T04:54:03.835Z,3.40
2018-09-01T04:56:32.098Z,3.40
2018-09-01T04:59:00.382Z,3.23
2018-09-01T05:01:28.718Z,2.93
2018-09-01T05:03:56.927Z,2.73
2018-09-01T05:06:25.183Z,3.10
2018-09-01T05:08:53.464Z,2.93
2018-09-01T05:11:21.711Z,2.60
2018-09-01T05:13:49.990Z,2.43
2018-09-01T05:16:18.299Z,2.70
2018-09-01T05:18:46.708Z,2.33
2018-09-01T05:21:14.963Z,2.47
2018-09-01T05:23:43.226Z,2.30
2018-09-01T05:26:11.500Z,2.40
2018-09-01T05:28:39.782Z,2.30
2018-09-01T05:31:08.052Z,2.00
2018-09-01T05:33:36.321Z,2.73
2018-09-01T05:36:04.578Z,2.03
2018-09-01T05:38:32.852Z,2.10
2018-09-01T05:41:01.148Z,2.30
2018-09-01T05:43:29.442Z,2.43
2018-09-01T05:45:57.703Z,2.30
2018-09-01T05:48:25.982Z,2.50
2018-09-01T05:50:54.287Z,2.30
2018-09-01T05:53:22.535Z,2.30
2018-09-01T05:55:50.843Z,1.90
2018-09-01T05:58:19.126Z,2.20
2018-09-01T06:00:47.399Z,2.10
2018-09-01T06:03:16.171Z,1.83
2018-09-01T06:05:44.800Z,2.27
2018-09-01T06:08:13.130Z,1.90
2018-09-01T06:10:41.414Z,1.97
2018-09-01T06:13:09.703Z,1.77
2018-09-01T06:15:38.334Z,2.30
2018-09-01T06:18:06.990Z,1.90
2018-09-01T06:20:35.252Z,2.27
2018-09-01T06:23:03.530Z,1.97
2018-09-01T06:25:31.795Z,2.20
2018-09-01T06:28:03.598Z,1.90
2018-09-01T06:30:34.314Z,1.63
2018-09-01T06:33:02.713Z,1.90
2018-09-01T06:35:30.891Z,1.80
2018-09-01T06:37:59.156Z,2.00
2018-09-01T06:40:27.426Z,1.80
2018-09-01T06:42:55.786Z,1.90
2018-09-01T06:45:24.055Z,2.10
2018-09-01T06:47:52.320Z,1.80
2018-09-01T06:50:20.623Z,1.90
2018-09-01T06:52:48.888Z,2.13
2018-09-01T06:55:17.156Z,2.07
2018-09-01T06:57:45.455Z,2.20
2018-09-01T07:00:13.731Z,1.87
2018-09-01T07:02:42.002Z,1.70
2018-09-01T07:05:10.322Z,1.77
2018-09-01T07:07:38.603Z,2.10
2018-09-01T07:10:06.905Z,1.80
2018-09-01T07:12:35.160Z,1.70
2018-09-01T07:15:03.430Z,2.17
2018-09-01T07:17:31.710Z,1.90
2018-09-01T07:19:59.973Z,12.93
2018-09-01T07:22:28.234Z,9.10
2018-09-01T07:24:56.498Z,8.00
2018-09-01T07:27:24.824Z,7.00
2018-09-01T07:29:53.095Z,7.03
2018-09-01T07:32:21.410Z,16.50
2018-09-01T07:34:49.776Z,23.40
2018-09-01T07:37:18.181Z,16.93
2018-09-01T07:39:46.465Z,16.17
2018-09-01T07:42:14.754Z,12.70
2018-09-01T07:44:43.053Z,11.87
2018-09-01T07:47:11.331Z,11.40
2018-09-01T07:49:39.622Z,12.40
2018-09-01T07:52:07.927Z,10.50
2018-09-01T07:54:36.285Z,11.17
2018-09-01T07:57:04.823Z,10.03
2018-09-01T07:59:33.139Z,10.07
2018-09-01T08:02:01.430Z,9.70
2018-09-01T08:04:29.691Z,8.20
2018-09-01T08:06:57.978Z,9.53
2018-09-01T08:09:26.263Z,9.40
2018-09-01T08:11:54.559Z,8.73
2018-09-01T08:14:22.958Z,8.50
2018-09-01T08:16:51.155Z,8.60
2018-09-01T08:19:19.512Z,8.73
2018-09-01T08:21:47.924Z,8.03
2018-09-01T08:24:16.224Z,7.77
2018-09-01T08:26:44.505Z,7.47
2018-09-01T08:29:12.800Z,7.43
2018-09-01T08:31:41.149Z,7.37
2018-09-01T08:34:09.432Z,7.53
2018-09-01T08:36:37.712Z,6.63
2018-09-01T08:39:06.859Z,6.47
2018-09-01T08:41:35.156Z,6.77
2018-09-01T08:44:03.436Z,6.20
2018-09-01T08:46:31.741Z,5.80
2018-09-01T08:49:00.136Z,5.80
2018-09-01T08:51:28.438Z,5.57
2018-09-01T08:53:56.706Z,6.23
2018-09-01T08:56:25.032Z,5.60
2018-09-01T08:58:53.301Z,6.00
2018-09-01T09:01:21.614Z,5.20
2018-09-01T09:03:49.939Z,12.93
2018-09-01T09:06:18.232Z,10.27
2018-09-01T09:08:46.531Z,12.57
2018-09-01T09:11:14.928Z,11.73
2018-09-01T09:13:43.291Z,10.40
2018-09-01T09:16:11.618Z,10.50
2018-09-01T09:18:40.005Z,10.50
2018-09-01T09:21:08.542Z,11.27
2018-09-01T09:23:37.049Z,42.33
2018-09-01T09:26:05.526Z,34.13
2018-09-01T09:28:33.853Z,35.33
2018-09-01T09:31:02.236Z,37.93
2018-09-01T09:33:30.632Z,44.97
2018-09-01T09:35:59.126Z,40.27
2018-09-01T09:38:27.480Z,34.93
2018-09-01T09:40:55.842Z,35.07
2018-09-01T09:43:24.604Z,40.07
2018-09-01T09:45:52.974Z,39.83
2018-09-01T09:48:21.322Z,45.87
2018-09-01T09:50:49.671Z,63.70
2018-09-01T09:53:18.020Z,48.33
2018-09-01T09:55:46.603Z,52.57
2018-09-01T09:58:15.114Z,49.03
2018-09-01T10:00:48.927Z,45.17
2018-09-01T10:03:17.198Z,41.53
2018-09-01T10:05:45.634Z,39.63
2018-09-01T10:08:14.001Z,38.97
2018-09-01T10:10:42.571Z,35.57
2018-09-01T10:13:12.237Z,32.70
2018-09-01T10:15:40.602Z,32.27
2018-09-01T10:18:08.959Z,32.07
2018-09-01T10:20:37.495Z,29.00
2018-09-01T10:23:05.910Z,30.23
2018-09-01T10:25:34.275Z,29.53
2018-09-01T10:28:04.392Z,36.80
2018-09-01T10:30:32.819Z,52.00
2018-09-01T10:33:01.237Z,57.60
2018-09-01T10:35:29.709Z,57.67
2018-09-01T10:37:58.148Z,50.23
2018-09-01T10:40:26.568Z,48.90
2018-09-01T10:42:54.988Z,46.30
2018-09-01T10:45:23.357Z,63.60
2018-09-01T10:47:51.810Z,59.77
2018-09-01T10:50:20.076Z,70.00
2018-09-01T10:52:48.495Z,58.73
2018-09-01T10:55:16.883Z,56.53
2018-09-01T10:57:45.532Z,54.03
2018-09-01T11:00:13.978Z,50.13
2018-09-01T11:02:42.380Z,51.20
2018-09-01T11:05:10.914Z,47.07
2018-09-01T11:07:39.289Z,46.27
2018-09-01T11:10:07.661Z,43.20
2018-09-01T11:12:36.276Z,41.27
2018-09-01T11:15:05.477Z,38.93
2018-09-01T11:17:34.277Z,37.20
2018-09-01T11:20:02.689Z,37.13
2018-09-01T11:22:31.129Z,35.13
2018-09-01T11:24:59.547Z,65.37
2018-09-01T11:27:28.190Z,61.23
2018-09-01T11:29:56.587Z,70.17
2018-09-01T11:32:25.085Z,57.43
2018-09-01T11:34:53.456Z,51.30
2018-09-01T11:37:21.873Z,51.00
2018-09-01T11:39:54.062Z,45.27
2018-09-01T11:42:22.538Z,45.07
2018-09-01T11:44:50.843Z,40.07
2018-09-01T11:47:19.325Z,83.67
2018-09-01T11:49:47.643Z,75.87
2018-09-01T11:52:15.935Z,60.60
2018-09-01T11:54:44.296Z,84.23
2018-09-01T11:57:12.596Z,89.20
2018-09-01T11:59:41.054Z,91.23
2018-09-01T12:02:09.462Z,126.87
2018-09-01T12:04:37.920Z,99.60
2018-09-01T12:07:06.225Z,95.07
2018-09-01T12:09:34.655Z,89.67
2018-09-01T12:12:02.972Z,83.80
2018-09-01T12:14:31.504Z,80.57
2018-09-01T12:16:59.826Z,76.67
2018-09-01T12:19:28.130Z,73.67
2018-09-01T12:21:56.506Z,69.57
2018-09-01T12:24:24.808Z,69.27
2018-09-01T12:26:53.130Z,83.23
2018-09-01T12:29:21.440Z,80.63
2018-09-01T12:31:49.742Z,83.17
2018-09-01T12:34:18.047Z,117.50
2018-09-01T12:36:46.405Z,99.33
2018-09-01T12:39:14.679Z,87.27
2018-09-01T12:41:42.971Z,81.00
2018-09-01T12:44:11.267Z,76.40
2018-09-01T12:46:39.591Z,75.03
2018-09-01T12:49:07.999Z,71.23
2018-09-01T12:51:36.352Z,70.53
2018-09-01T12:54:04.624Z,68.90
2018-09-01T12:56:32.927Z,65.50
2018-09-01T12:59:01.381Z,73.13
2018-09-01T13:01:29.650Z,65.80
2018-09-01T13:03:57.979Z,62.47
2018-09-01T13:06:26.280Z,59.30
2018-09-01T13:08:54.616Z,52.57
2018-09-01T13:11:22.981Z,52.47
2018-09-01T13:13:51.491Z,50.87
2018-09-01T13:16:19.813Z,49.33
2018-09-01T13:18:48.119Z,47.17
2018-09-01T13:21:16.425Z,47.60
2018-09-01T13:23:44.765Z,46.57
2018-09-01T13:26:13.155Z,45.97
2018-09-01T13:28:41.506Z,44.90
2018-09-01T13:31:09.888Z,41.40
2018-09-01T13:33:38.220Z,37.13
2018-09-01T13:36:06.550Z,37.53
2018-09-01T13:38:34.966Z,53.97
2018-09-01T13:41:03.614Z,66.33
2018-09-01T13:43:31.931Z,52.50
2018-09-01T13:46:00.296Z,47.97
2018-09-01T13:48:28.657Z,48.53
2018-09-01T13:50:57.020Z,45.07
2018-09-01T13:53:25.404Z,45.90
2018-09-01T13:55:53.774Z,39.97
2018-09-01T13:58:22.315Z,37.67
2018-09-01T14:00:50.777Z,35.73
2018-09-01T14:03:19.186Z,35.03
2018-09-01T14:05:47.578Z,32.93
2018-09-01T14:08:15.941Z,30.87
2018-09-01T14:10:44.338Z,29.70
2018-09-01T14:13:12.746Z,30.53
2018-09-01T14:15:41.176Z,36.87
2018-09-01T14:18:09.719Z,29.30
2018-09-01T14:20:38.120Z,32.97
2018-09-01T14:23:06.448Z,29.93
2018-09-01T14:25:35.047Z,33.90
2018-09-01T14:28:03.518Z,30.77
2018-09-01T14:30:31.935Z,27.07
2018-09-01T14:33:00.376Z,28.03
2018-09-01T14:35:28.857Z,26.67
2018-09-01T14:37:57.284Z,26.17
2018-09-01T14:40:25.696Z,25.30
2018-09-01T14:42:54.057Z,23.90
2018-09-01T14:45:22.479Z,23.47
2018-09-01T14:47:50.933Z,23.57
2018-09-01T14:50:19.453Z,22.13
2018-09-01T14:52:47.785Z,24.23
2018-09-01T14:55:16.212Z,25.97
2018-09-01T14:57:44.660Z,23.83
2018-09-01T15:00:13.122Z,25.03
2018-09-01T15:02:41.533Z,22.60
2018-09-01T15:05:09.928Z,22.57
2018-09-01T15:07:38.654Z,21.77
2018-09-01T15:10:07.339Z,21.53
2018-09-01T15:12:35.825Z,19.33
2018-09-01T15:15:04.342Z,19.97
2018-09-01T15:17:32.856Z,19.57
2018-09-01T15:20:01.303Z,16.83
2018-09-01T15:22:29.679Z,16.20
2018-09-01T15:24:58.079Z,15.57
2018-09-01T15:27:26.435Z,16.03
2018-09-01T15:29:54.842Z,15.97
2018-09-01T15:32:23.340Z,14.23
2018-09-01T15:34:51.835Z,14.50
2018-09-01T15:37:20.482Z,13.07
2018-09-01T15:39:49.049Z,12.30
2018-09-01T15:42:17.420Z,13.30
2018-09-01T15:44:45.984Z,29.50
2018-09-01T15:47:14.427Z,20.10
2018-09-01T15:49:42.926Z,22.67
2018-09-01T15:52:11.383Z,32.43
2018-09-01T15:54:39.864Z,26.90
2018-09-01T15:57:09.082Z,23.67
2018-09-01T15:59:37.562Z,24.53
2018-09-01T16:02:06.379Z,24.57
2018-09-01T16:04:35.829Z,22.27
2018-09-01T16:07:04.370Z,20.30
2018-09-01T16:09:32.874Z,19.27
2018-09-01T16:12:01.426Z,18.67
2018-09-01T16:14:30.009Z,27.60
2018-09-01T16:16:58.480Z,27.80
2018-09-01T16:19:27.020Z,30.90
2018-09-01T16:21:55.517Z,28.90
2018-09-01T16:24:23.889Z,25.40
2018-09-01T16:26:52.523Z,25.40
2018-09-01T16:29:20.965Z,26.20
2018-09-01T16:31:49.406Z,26.33
2018-09-01T16:34:17.780Z,24.20
2018-09-01T16:36:46.217Z,22.73
2018-09-01T16:39:14.682Z,22.27
2018-09-01T16:41:43.082Z,21.27
2018-09-01T16:44:11.573Z,20.30
2018-09-01T16:46:40.068Z,18.83
2018-09-01T16:49:08.475Z,18.67
2018-09-01T16:51:37.231Z,16.97
2018-09-01T16:54:06.743Z,17.90
2018-09-01T16:56:35.121Z,16.20
2018-09-01T16:59:04.804Z,17.03
2018-09-01T17:01:33.207Z,15.57
2018-09-01T17:04:01.862Z,17.43
2018-09-01T17:06:30.288Z,18.53
2018-09-01T17:08:58.723Z,19.73
2018-09-01T17:11:27.053Z,18.30
2018-09-01T17:13:55.365Z,16.63
2018-09-01T17:16:23.753Z,16.40
2018-09-01T17:18:52.075Z,15.83
2018-09-01T17:21:20.704Z,15.17
2018-09-01T17:23:49.050Z,14.03
2018-09-01T17:26:17.470Z,14.27
2018-09-01T17:28:45.834Z,14.30
2018-09-01T17:31:14.345Z,14.40
2018-09-01T17:33:42.793Z,13.53
2018-09-01T17:36:11.169Z,17.27
2018-09-01T17:38:39.484Z,17.93
2018-09-01T17:41:07.876Z,18.03
2018-09-01T17:43:36.279Z,16.87
2018-09-01T17:46:04.957Z,18.97
2018-09-01T17:48:33.416Z,17.60
2018-09-01T17:51:01.788Z,16.17
2018-09-01T17:53:30.143Z,15.57
2018-09-01T17:55:58.640Z,15.17
2018-09-01T17:58:27.105Z,14.93
2018-09-01T18:00:55.494Z,15.60
2018-09-01T18:03:23.977Z,15.57
2018-09-01T18:05:52.340Z,23.27
2018-09-01T18:08:20.677Z,25.63
2018-09-01T18:10:49.233Z,15.27
2018-09-01T18:13:17.709Z,14.73
2018-09-01T18:15:46.158Z,17.00
2018-09-01T18:18:14.566Z,14.40
2018-09-01T18:20:43.073Z,14.83
2018-09-01T18:23:11.510Z,17.10
2018-09-01T18:25:39.947Z,20.33
2018-09-01T18:28:08.292Z,27.60
2018-09-01T18:30:36.616Z,39.00
2018-09-01T18:33:05.004Z,35.60
2018-09-01T18:35:33.446Z,34.13
2018-09-01T18:38:01.811Z,39.10
2018-09-01T18:40:30.251Z,27.80
2018-09-01T18:42:58.789Z,26.43
2018-09-01T18:45:27.139Z,30.80
2018-09-01T18:47:55.519Z,35.53
2018-09-01T18:50:23.951Z,42.87
2018-09-01T18:52:52.387Z,59.23
2018-09-01T18:55:20.754Z,56.43
2018-09-01T18:57:49.171Z,75.47
2018-09-01T19:00:17.496Z,48.23
2018-09-01T19:02:45.831Z,42.20
2018-09-01T19:05:14.190Z,36.33
2018-09-01T19:07:42.579Z,36.80
2018-09-01T19:10:11.016Z,36.83
2018-09-01T19:12:39.591Z,35.67
2018-09-01T19:15:08.289Z,34.03
2018-09-01T19:17:43.047Z,32.40
2018-09-01T19:20:11.481Z,32.00
2018-09-01T19:22:40.293Z,30.00
2018-09-01T19:25:09.113Z,28.10
2018-09-01T19:27:37.558Z,31.03
2018-09-01T19:30:06.520Z,29.93
2018-09-01T19:32:34.990Z,28.83
2018-09-01T19:35:03.516Z,27.80
2018-09-01T19:37:31.983Z,26.27
2018-09-01T19:40:00.431Z,25.33
2018-09-01T19:42:28.831Z,24.83
2018-09-01T19:44:57.186Z,30.63
2018-09-01T19:47:25.585Z,43.57
2018-09-01T19:49:53.964Z,64.83
2018-09-01T19:52:22.370Z,55.07
2018-09-01T19:54:50.676Z,51.20
2018-09-01T19:57:19.097Z,49.67
2018-09-01T19:59:47.690Z,64.13
2018-09-01T20:02:16.139Z,90.83
2018-09-01T20:04:44.657Z,67.13
2018-09-01T20:07:13.236Z,65.50
2018-09-01T20:09:41.562Z,69.27
2018-09-01T20:12:09.977Z,69.17
2018-09-01T20:14:38.559Z,52.37
2018-09-01T20:17:06.940Z,71.03
2018-09-01T20:19:35.282Z,62.03
2018-09-01T20:22:03.633Z,64.47
2018-09-01T20:24:32.076Z,65.70
2018-09-01T20:27:00.566Z,58.53
2018-09-01T20:29:29.218Z,54.07
2018-09-01T20:31:57.701Z,57.13
2018-09-01T20:34:26.183Z,56.10
2018-09-01T20:36:54.620Z,54.30
2018-09-01T20:39:23.111Z,67.33
2018-09-01T20:41:51.670Z,69.80
2018-09-01T20:44:20.125Z,54.57
2018-09-01T20:46:48.518Z,54.57
2018-09-01T20:49:17.053Z,57.70
2018-09-01T20:51:45.607Z,69.43
2018-09-01T20:54:13.968Z,81.67
2018-09-01T20:56:42.351Z,78.53
2018-09-01T20:59:10.927Z,71.40
2018-09-01T21:01:39.243Z,68.03
2018-09-01T21:04:07.715Z,68.73
2018-09-01T21:06:36.160Z,68.17
2018-09-01T21:09:05.644Z,67.23
2018-09-01T21:11:34.034Z,66.27
2018-09-01T21:14:02.431Z,65.90
2018-09-01T21:16:30.966Z,61.40
2018-09-01T21:18:59.318Z,59.80
2018-09-01T21:21:27.691Z,61.83
2018-09-01T21:23:56.112Z,72.50
2018-09-01T21:26:24.532Z,86.83
2018-09-01T21:28:52.915Z,90.67
2018-09-01T21:31:21.272Z,86.07
2018-09-01T21:33:49.748Z,83.23
2018-09-01T21:36:18.169Z,82.27
2018-09-01T21:38:46.593Z,81.47
2018-09-01T21:41:14.944Z,77.90
2018-09-01T21:43:43.261Z,79.63
2018-09-01T21:46:11.620Z,76.67
2018-09-01T21:48:39.940Z,78.30
2018-09-01T21:51:08.273Z,76.40
2018-09-01T21:53:36.665Z,75.53
2018-09-01T21:56:05.707Z,76.27
2018-09-01T21:58:34.159Z,74.00
2018-09-01T22:01:07.807Z,74.33
2018-09-01T22:03:40.379Z,71.80
2018-09-01T22:06:08.784Z,71.13
2018-09-01T22:08:37.272Z,70.57
2018-09-01T22:11:05.921Z,67.10
2018-09-01T22:13:34.401Z,70.83
2018-09-01T22:16:02.716Z,69.07
2018-09-01T22:18:31.161Z,67.27
2018-09-01T22:20:59.514Z,65.77
2018-09-01T22:23:27.956Z,67.13
2018-09-01T22:25:56.240Z,64.63
2018-09-01T22:31:03.654Z,64.57
2018-09-01T22:33:31.992Z,64.27
2018-09-01T22:36:00.723Z,61.70
2018-09-01T22:38:29.411Z,62.10
2018-09-01T22:40:58.852Z,63.13
2018-09-01T22:43:27.223Z,59.83
2018-09-01T22:45:55.572Z,61.10
2018-09-01T22:48:23.925Z,60.30
2018-09-01T22:50:52.281Z,59.90
2018-09-01T22:53:20.606Z,59.73
2018-09-01T22:55:49.076Z,58.17
2018-09-01T22:58:17.470Z,58.80
2018-09-01T23:00:45.819Z,58.23
2018-09-01T23:03:14.187Z,58.00
2018-09-01T23:05:42.615Z,56.37
2018-09-01T23:08:10.952Z,53.57
2018-09-01T23:10:39.318Z,57.27
2018-09-01T23:13:07.716Z,59.03
2018-09-01T23:15:36.096Z,99.10
2018-09-01T23:18:04.470Z,115.83
2018-09-01T23:20:32.814Z,109.70
2018-09-01T23:23:01.234Z,104.77
2018-09-01T23:25:29.576Z,89.53
2018-09-01T23:27:57.955Z,81.87
2018-09-01T23:30:26.367Z,76.70
2018-09-01T23:32:54.654Z,77.07
2018-09-01T23:35:23.067Z,78.50
2018-09-01T23:37:51.452Z,109.80
2018-09-01T23:40:19.815Z,148.57
2018-09-01T23:42:48.232Z,120.27
2018-09-01T23:45:16.671Z,141.03
2018-09-01T23:47:45.060Z,137.17
2018-09-01T23:50:13.441Z,123.20
2018-09-01T23:52:41.795Z,128.10
2018-09-01T23:55:10.204Z,112.47
2018-09-01T23:57:38.582Z,107.57
